Hartford, Connecticut
Traffic Map
Current Weather Conditions
Hartford, Connecticut
Clear
Clear
22°
Feels Like: 22°
Wind Chill: 22° Ceiling: Unl
Heat Index: 22° Visibility: 10mi
Dew Point: 15° Wind: 7mph
Humidity: 64% Direction: ° ()
Pressure: 30.2in Gusts: 0mph
Raw Report DataKHFD 050053Z VRB06KT 10SM CLR 22/15 A3020 RMK AO2 SLP227 T02220150
Traffic Incident Summary
Active as of:
Severity:
Category:
InformationThere was an issue retrieving the traffic information for this location. Please try a different location or try again shortly.
Advertisements
Track Severe Weather on mobile